Time;durP1;ratioP1;P1;durP2;ratioP2;P2;SDS_P1;SDS_P2;PMS_P1;PMS_P2;Temp;Humidity;BMP_temperature;BMP_pressure;BME280_temperature;BME280_humidity;BME280_pressure;Samples;Min_cycle;Max_cycle;Signal;HPM_P1;HPM_P2
2023/05/29 00:02:24;;;;;;;;;9.75;9.25;;;;;20.58;47.89;101067.00;5076563;27;45563;-76
2023/05/29 00:08:11;;;;;;;;;13.50;9.75;;;;;20.43;48.29;101059.66;5075147;28;45662;-77
2023/05/29 00:10:37;;;;;;;;;8.00;6.00;;;;;20.40;48.64;101065.31;5074962;28;45650;-78
2023/05/29 00:13:02;;;;;;;;;11.75;9.75;;;;;20.37;48.47;101072.75;5075102;28;45667;-79
2023/05/29 00:15:28;;;;;;;;;11.50;9.75;;;;;20.33;48.70;101076.75;5078039;27;45539;-77
2023/05/29 00:17:53;;;;;;;;;14.00;10.00;;;;;20.29;48.46;101078.88;5078636;27;45629;-76
2023/05/29 00:23:41;;;;;;;;;12.75;10.25;;;;;20.18;48.85;101078.31;5079393;28;45639;-79
2023/05/29 00:26:07;;;;;;;;;11.00;8.00;;;;;20.10;48.93;101082.59;5080552;27;46355;-76
2023/05/29 00:28:32;;;;;;;;;11.50;11.50;;;;;20.05;48.82;101084.91;5080740;27;45760;-78
2023/05/29 00:30:58;;;;;;;;;10.75;10.00;;;;;20.03;49.21;101086.03;5078583;28;45652;-80
2023/05/29 00:33:23;;;;;;;;;11.50;9.50;;;;;19.97;49.66;101082.19;5079226;28;45654;-75
2023/05/29 00:35:48;;;;;;;;;11.75;8.75;;;;;19.91;49.11;101074.84;5079140;28;45648;-76
2023/05/29 00:38:14;;;;;;;;;10.50;8.00;;;;;19.87;49.05;101076.16;5078923;27;45670;-77
2023/05/29 00:40:40;;;;;;;;;11.50;10.25;;;;;19.84;49.58;101079.13;5079267;27;45478;-75
2023/05/29 00:43:05;;;;;;;;;13.00;10.75;;;;;19.79;49.96;101072.63;5082515;28;45949;-79
2023/05/29 00:45:31;;;;;;;;;10.75;8.25;;;;;19.75;49.59;101072.09;5081607;28;45594;-78
2023/05/29 00:47:57;;;;;;;;;8.00;7.00;;;;;19.74;50.07;101078.41;5077955;27;45957;-76
2023/05/29 00:53:45;;;;;;;;;11.75;9.75;;;;;19.64;49.65;101057.25;5076826;28;45727;-76
2023/05/29 00:56:12;;;;;;;;;9.50;7.50;;;;;19.64;49.53;101067.06;5077081;27;45688;-80
2023/05/29 00:58:37;;;;;;;;;11.25;9.00;;;;;19.62;49.67;101061.03;5076816;27;45504;-82
2023/05/29 01:01:03;;;;;;;;;9.75;9.00;;;;;19.61;49.96;101062.88;5076844;27;45494;-77
2023/05/29 01:03:29;;;;;;;;;9.75;9.25;;;;;19.61;49.92;101062.88;5076909;27;45722;-78
2023/05/29 01:05:54;;;;;;;;;9.75;8.25;;;;;19.57;50.12;101058.84;5076627;27;45594;-79
2023/05/29 01:08:20;;;;;;;;;11.25;9.25;;;;;19.54;50.42;101058.34;5075593;28;45920;-80
2023/05/29 01:10:47;;;;;;;;;11.00;9.75;;;;;19.51;50.57;101059.47;5077152;27;46241;-76
2023/05/29 01:13:18;;;;;;;;;12.75;9.00;;;;;19.49;50.21;101058.78;5076371;27;45731;-76
2023/05/29 01:15:57;;;;;;;;;10.00;10.00;;;;;19.45;50.13;101054.78;5076300;27;45610;-78
2023/05/29 01:25:21;;;;;;;;;10.00;9.00;;;;;19.34;50.53;101059.47;5076392;28;45735;-75
2023/05/29 01:27:48;;;;;;;;;12.50;10.75;;;;;19.29;50.96;101051.97;5076404;27;45658;-80
2023/05/29 01:30:15;;;;;;;;;12.00;9.25;;;;;19.29;50.56;101062.59;5076391;27;46375;-77
2023/05/29 01:32:41;;;;;;;;;8.75;8.00;;;;;19.24;50.97;101060.41;5076032;27;45668;-75
2023/05/29 01:35:07;;;;;;;;;9.00;8.00;;;;;19.22;51.10;101066.84;5076232;27;45668;-76
2023/05/29 01:37:32;;;;;;;;;13.75;11.00;;;;;19.15;51.12;101057.84;5075701;27;45602;-80
2023/05/29 01:39:58;;;;;;;;;11.00;10.00;;;;;19.13;50.63;101060.66;5075902;28;46168;-76
2023/05/29 01:42:24;;;;;;;;;8.25;7.75;;;;;19.12;50.85;101066.09;5075483;27;45675;-77
2023/05/29 01:44:50;;;;;;;;;12.50;10.50;;;;;19.12;51.44;101060.78;5075954;27;45850;-79
2023/05/29 01:47:16;;;;;;;;;10.00;8.50;;;;;19.09;51.09;101067.25;5075844;27;45622;-80
2023/05/29 01:49:43;;;;;;;;;11.00;10.75;;;;;19.07;51.28;101061.25;5076057;27;46268;-77
2023/05/29 01:52:10;;;;;;;;;11.50;9.00;;;;;19.04;51.66;101069.53;5075493;27;45635;-76
2023/05/29 01:54:36;;;;;;;;;8.75;8.75;;;;;18.98;51.40;101067.47;5076030;27;45707;-75
2023/05/29 01:57:02;;;;;;;;;11.00;8.50;;;;;18.95;51.07;101065.13;5075428;27;45729;-77
2023/05/29 01:59:29;;;;;;;;;10.75;9.75;;;;;18.92;51.76;101064.59;5075528;27;46001;-75
2023/05/29 02:01:55;;;;;;;;;12.00;11.00;;;;;18.88;51.86;101069.38;5075129;27;45657;-75
2023/05/29 02:04:20;;;;;;;;;9.00;9.00;;;;;18.86;51.26;101058.91;5075549;28;45590;-76
2023/05/29 02:06:45;;;;;;;;;9.00;8.00;;;;;18.84;51.85;101062.69;5075284;27;46475;-78
2023/05/29 02:09:11;;;;;;;;;12.25;9.00;;;;;18.82;51.73;101059.38;5073931;27;47897;-75
2023/05/29 02:11:37;;;;;;;;;9.75;9.50;;;;;18.80;52.25;101066.63;5075135;27;45729;-75
2023/05/29 02:14:03;;;;;;;;;9.00;9.00;;;;;18.75;52.23;101067.09;5075370;27;45756;-77
2023/05/29 02:16:28;;;;;;;;;9.25;7.50;;;;;18.71;52.01;101068.38;5075183;28;46356;-80
2023/05/29 02:18:54;;;;;;;;;11.25;9.25;;;;;18.64;52.37;101062.00;5075337;27;45646;-80
2023/05/29 02:24:41;;;;;;;;;10.25;9.50;;;;;18.52;52.79;101070.28;5075169;28;45644;-79
2023/05/29 02:27:06;;;;;;;;;10.25;9.00;;;;;18.46;53.35;101072.53;5075084;27;45685;-78
2023/05/29 02:29:32;;;;;;;;;12.50;12.00;;;;;18.40;53.31;101056.41;5075203;27;46472;-77
2023/05/29 02:31:57;;;;;;;;;10.00;9.75;;;;;18.32;53.79;101059.78;5074855;27;45575;-79
2023/05/29 02:34:22;;;;;;;;;13.25;10.50;;;;;18.25;54.12;101079.06;5074689;28;45657;-78
2023/05/29 02:36:49;;;;;;;;;7.50;6.75;;;;;18.22;53.33;101061.66;5074737;28;46282;-78
2023/05/29 02:39:14;;;;;;;;;10.75;9.00;;;;;18.19;54.00;101069.88;5076028;27;46072;-81
2023/05/29 02:41:40;;;;;;;;;10.00;9.00;;;;;18.16;53.52;101072.84;5079291;27;46174;-75
2023/05/29 02:44:05;;;;;;;;;12.00;9.00;;;;;18.15;54.21;101068.53;5086903;28;45706;-83
2023/05/29 02:46:31;;;;;;;;;9.75;9.00;;;;;18.14;54.64;101066.84;5090533;27;45487;-81
2023/05/29 02:48:56;;;;;;;;;11.75;10.00;;;;;18.10;54.60;101067.28;5085168;28;45547;-83
2023/05/29 02:54:43;;;;;;;;;10.00;8.00;;;;;17.94;55.01;101074.06;5076701;28;45585;-81
2023/05/29 02:57:09;;;;;;;;;9.25;9.00;;;;;17.89;54.30;101067.50;5075769;27;45539;-80
2023/05/29 02:59:35;;;;;;;;;8.00;7.50;;;;;17.86;55.11;101084.56;5075391;28;45640;-79
2023/05/29 03:02:00;;;;;;;;;10.25;10.25;;;;;17.84;54.54;101077.72;5074704;28;45508;-76
2023/05/29 03:04:27;;;;;;;;;14.00;10.00;;;;;17.82;55.58;101075.19;5074748;27;45611;-79
2023/05/29 03:06:52;;;;;;;;;11.00;9.25;;;;;17.82;55.15;101085.81;5074471;27;46671;-77
2023/05/29 03:09:18;;;;;;;;;9.50;9.00;;;;;17.79;55.16;101083.44;5074646;27;45808;-75
2023/05/29 03:11:44;;;;;;;;;11.00;9.25;;;;;17.74;55.34;101080.41;5074256;28;45591;-76
2023/05/29 03:14:10;;;;;;;;;13.25;9.75;;;;;17.70;55.60;101079.03;5074527;27;45529;-78
2023/05/29 03:16:35;;;;;;;;;10.00;9.00;;;;;17.64;55.22;101081.41;5074541;28;45530;-78
2023/05/29 03:19:01;;;;;;;;;13.00;11.25;;;;;17.63;56.03;101085.03;5072905;28;47951;-77
2023/05/29 03:24:48;;;;;;;;;12.25;10.75;;;;;17.52;56.48;101093.94;5074230;28;45594;-76
2023/05/29 03:27:14;;;;;;;;;13.75;10.00;;;;;17.48;56.66;101098.69;5073758;27;46196;-76
2023/05/29 03:29:40;;;;;;;;;10.50;9.50;;;;;17.42;56.40;101091.31;5074214;27;45522;-79
2023/05/29 03:32:05;;;;;;;;;11.00;10.00;;;;;17.36;56.12;101089.22;5073849;28;45785;-76
2023/05/29 03:34:31;;;;;;;;;11.25;10.50;;;;;17.36;57.10;101083.91;5074268;28;45648;-76
2023/05/29 03:36:56;;;;;;;;;9.75;9.75;;;;;17.27;57.18;101084.78;5074162;27;45784;-77
2023/05/29 03:39:22;;;;;;;;;14.75;8.25;;;;;17.24;58.08;101097.44;5072400;28;47552;-79
2023/05/29 03:41:47;;;;;;;;;11.00;10.75;;;;;17.16;57.79;101099.00;5073939;27;45588;-77
2023/05/29 03:44:13;;;;;;;;;11.00;11.00;;;;;17.12;57.98;101099.38;5072504;28;45959;-78
2023/05/29 03:46:38;;;;;;;;;11.75;11.00;;;;;17.07;57.64;101096.31;5073929;27;46209;-75
2023/05/29 03:49:03;;;;;;;;;10.75;8.00;;;;;17.00;58.62;101103.16;5077675;28;46009;-75
2023/05/29 03:54:50;;;;;;;;;16.50;14.25;;;;;16.92;58.75;101106.50;5077396;28;45714;-77
2023/05/29 03:57:16;;;;;;;;;12.50;9.25;;;;;16.87;59.36;101114.00;5077585;27;46863;-77
2023/05/29 03:59:41;;;;;;;;;13.75;12.25;;;;;16.85;59.26;101110.66;5077497;28;46338;-77
2023/05/29 04:02:07;;;;;;;;;11.50;10.25;;;;;16.77;58.76;101106.06;5077477;27;46061;-78
2023/05/29 04:04:32;;;;;;;;;12.00;9.75;;;;;16.73;59.65;101112.56;5078402;27;45784;-79
2023/05/29 04:10:20;;;;;;;;;11.75;9.50;;;;;16.65;59.69;101122.16;5078415;28;46041;-78
2023/05/29 04:12:45;;;;;;;;;13.50;12.25;;;;;16.59;60.05;101123.53;5078073;28;45553;-76
2023/05/29 04:15:10;;;;;;;;;17.25;14.50;;;;;16.57;59.54;101128.09;5078971;28;45808;-76
2023/05/29 04:17:36;;;;;;;;;14.00;13.00;;;;;16.53;59.61;101126.69;5078449;27;45655;-77
2023/05/29 04:20:07;;;;;;;;;12.75;9.75;;;;;16.55;59.98;101131.84;5078771;28;46677;-75
2023/05/29 04:22:34;;;;;;;;;13.50;12.25;;;;;16.51;59.77;101126.00;5078199;27;45743;-76
2023/05/29 04:24:59;;;;;;;;;12.00;11.50;;;;;16.50;59.92;101129.63;5077747;27;45532;-77
2023/05/29 04:27:25;;;;;;;;;6.00;4.00;;;;;16.50;59.98;101142.84;5077092;28;46302;-79
2023/05/29 04:29:50;;;;;;;;;14.25;11.00;;;;;16.51;59.68;101141.88;5077089;27;45592;-76
2023/05/29 04:32:15;;;;;;;;;9.50;9.25;;;;;16.52;60.00;101151.47;5076897;28;45553;-76
2023/05/29 04:34:43;;;;;;;;;12.75;11.75;;;;;16.49;60.19;101146.47;5076950;28;45566;-77
2023/05/29 04:40:44;;;;;;;;;19.00;13.00;;;;;16.45;60.08;101153.00;5067682;28;45898;-78
2023/05/29 04:43:10;;;;;;;;;5.50;4.50;;;;;16.46;60.13;101153.84;5076556;28;45708;-75
2023/05/29 04:45:36;;;;;;;;;13.25;12.00;;;;;16.46;60.61;101170.53;5077035;28;45549;-80
2023/05/29 04:48:03;;;;;;;;;17.00;12.75;;;;;16.50;60.33;101158.72;5077043;27;46393;-76
2023/05/29 04:50:30;;;;;;;;;16.25;13.50;;;;;16.49;60.28;101167.63;5076568;27;46262;-77
2023/05/29 04:52:55;;;;;;;;;14.00;13.00;;;;;16.49;60.51;101174.72;5076475;27;45527;-77
2023/05/29 04:55:21;;;;;;;;;14.25;11.50;;;;;16.43;60.63;101162.84;5077112;28;45695;-77
2023/05/29 04:57:46;;;;;;;;;15.00;13.00;;;;;16.42;60.62;101169.13;5078695;27;45765;-76
2023/05/29 05:00:14;;;;;;;;;13.75;11.00;;;;;16.40;60.70;101172.88;5084029;27;45690;-77
2023/05/29 05:02:42;;;;;;;;;15.25;13.75;;;;;16.38;60.72;101180.94;5083322;27;45665;-77
2023/05/29 05:05:08;;;;;;;;;17.50;15.75;;;;;16.35;60.94;101176.75;5083090;27;45521;-78
2023/05/29 05:10:55;;;;;;;;;14.50;13.00;;;;;16.31;60.87;101182.41;5076917;28;46225;-79
2023/05/29 05:13:21;;;;;;;;;19.25;14.00;;;;;16.30;60.63;101178.13;5076895;27;45557;-77
2023/05/29 05:15:46;;;;;;;;;19.25;15.50;;;;;16.31;60.92;101185.06;5075832;28;45908;-76
2023/05/29 05:18:12;;;;;;;;;15.25;13.50;;;;;16.33;61.22;101177.84;5076594;27;46576;-80
2023/05/29 05:20:37;;;;;;;;;13.25;12.25;;;;;16.33;60.86;101181.34;5074734;28;46384;-78
2023/05/29 05:23:03;;;;;;;;;18.25;14.50;;;;;16.32;60.97;101170.88;5075947;28;45857;-78
2023/05/29 05:25:28;;;;;;;;;16.50;15.50;;;;;16.37;60.92;101182.75;5076576;27;45739;-79
2023/05/29 05:27:53;;;;;;;;;13.75;13.00;;;;;16.39;60.95;101185.25;5076111;27;46432;-78
2023/05/29 05:30:19;;;;;;;;;16.50;14.75;;;;;16.40;60.73;101188.75;5076309;27;46274;-80
2023/05/29 05:32:45;;;;;;;;;17.00;15.75;;;;;16.38;60.72;101186.22;5075924;27;45806;-76
2023/05/29 05:35:11;;;;;;;;;17.50;14.75;;;;;16.39;60.60;101198.47;5076439;27;45826;-76
2023/05/29 05:40:58;;;;;;;;;20.25;14.25;;;;;16.44;60.45;101200.72;5070724;28;46000;-77
2023/05/29 05:43:24;;;;;;;;;20.00;16.00;;;;;16.47;60.65;101206.59;5077912;28;45648;-78
2023/05/29 05:45:49;;;;;;;;;16.50;15.00;;;;;16.48;60.79;101195.03;5077956;27;45489;-78
2023/05/29 05:48:15;;;;;;;;;18.50;15.25;;;;;16.48;60.40;101197.69;5077495;28;46420;-78
2023/05/29 05:50:40;;;;;;;;;17.50;15.25;;;;;16.47;60.85;101198.66;5077511;27;46107;-78
2023/05/29 05:53:05;;;;;;;;;14.50;14.00;;;;;16.47;60.62;101206.59;5077500;28;45726;-80
2023/05/29 05:55:31;;;;;;;;;16.50;16.25;;;;;16.46;61.02;101214.66;5079137;27;45821;-80
2023/05/29 05:57:56;;;;;;;;;19.00;15.00;;;;;16.43;60.75;101210.47;5078417;28;45655;-79
2023/05/29 06:00:25;;;;;;;;;13.00;12.50;;;;;16.40;61.33;101207.25;5077401;27;46124;-77
2023/05/29 06:02:51;;;;;;;;;17.75;16.00;;;;;16.42;60.93;101213.25;5076835;28;45802;-77
2023/05/29 06:05:16;;;;;;;;;17.75;16.00;;;;;16.41;60.99;101217.69;5076773;27;45512;-82
2023/05/29 06:11:04;;;;;;;;;20.00;14.50;;;;;16.40;61.18;101223.97;5075005;28;46147;-74
2023/05/29 06:13:29;;;;;;;;;18.50;15.00;;;;;16.39;61.23;101206.41;5091306;27;45648;-76
2023/05/29 06:15:55;;;;;;;;;16.25;15.00;;;;;16.39;61.49;101214.34;5091383;27;45626;-75
2023/05/29 06:18:21;;;;;;;;;20.25;17.25;;;;;16.37;60.93;101217.13;5075924;27;46203;-75
2023/05/29 06:20:46;;;;;;;;;21.00;18.50;;;;;16.39;61.03;101214.34;5075974;27;46323;-77
2023/05/29 06:23:11;;;;;;;;;18.00;15.25;;;;;16.40;61.16;101217.84;5075076;28;45586;-78
2023/05/29 06:25:38;;;;;;;;;19.00;15.50;;;;;16.40;61.10;101226.63;5076570;27;45614;-79
2023/05/29 06:28:05;;;;;;;;;16.00;14.75;;;;;16.42;61.11;101226.47;5075208;28;45606;-76
2023/05/29 06:30:31;;;;;;;;;18.00;14.25;;;;;16.44;60.71;101237.75;5074910;27;46210;-77
2023/05/29 06:32:56;;;;;;;;;17.50;16.00;;;;;16.42;60.98;101229.94;5074942;27;45687;-81
2023/05/29 06:35:21;;;;;;;;;16.75;14.50;;;;;16.41;60.56;101235.38;5075234;28;45661;-79
2023/05/29 06:41:08;;;;;;;;;19.75;17.50;;;;;16.45;61.30;101245.56;5072321;28;45679;-79
2023/05/29 06:43:34;;;;;;;;;17.75;16.00;;;;;16.46;61.05;101226.09;5073486;28;45665;-76
2023/05/29 06:45:59;;;;;;;;;14.25;13.00;;;;;16.48;60.69;101242.66;5075024;27;45683;-77
2023/05/29 06:48:25;;;;;;;;;18.25;17.25;;;;;16.51;60.86;101241.56;5074639;28;45582;-78
2023/05/29 06:50:50;;;;;;;;;20.75;16.75;;;;;16.51;60.70;101234.47;5074260;27;46299;-76
2023/05/29 06:56:37;;;;;;;;;14.50;14.25;;;;;16.58;60.46;101232.94;5074751;28;45630;-82
2023/05/29 06:59:03;;;;;;;;;18.00;15.75;;;;;16.62;60.81;101244.16;5075604;28;45618;-82
2023/05/29 07:01:28;;;;;;;;;14.00;14.00;;;;;16.61;60.40;101235.38;5075337;27;46514;-81
2023/05/29 07:03:54;;;;;;;;;16.25;16.25;;;;;16.63;60.66;101236.06;5073602;28;45877;-80
2023/05/29 07:06:19;;;;;;;;;18.00;15.75;;;;;16.69;60.48;101248.78;5077035;28;45842;-78
2023/05/29 07:08:45;;;;;;;;;15.25;14.75;;;;;16.71;60.43;101249.50;5076685;27;45502;-78
2023/05/29 07:11:10;;;;;;;;;17.75;15.50;;;;;16.72;60.40;101232.66;5090401;27;47541;-80
2023/05/29 07:13:36;;;;;;;;;17.50;15.25;;;;;16.77;60.16;101245.47;5076580;28;45754;-77
2023/05/29 07:16:01;;;;;;;;;16.75;15.00;;;;;16.78;60.12;101253.28;5079587;27;45787;-82
2023/05/29 07:18:26;;;;;;;;;17.00;14.50;;;;;16.82;60.16;101243.25;5083032;28;45556;-77
2023/05/29 07:20:52;;;;;;;;;16.25;14.50;;;;;16.82;60.13;101237.97;5082223;27;45706;-79
2023/05/29 07:26:39;;;;;;;;;19.75;16.00;;;;;16.95;60.06;101245.69;5078116;28;45430;-80
2023/05/29 07:29:05;;;;;;;;;16.25;15.00;;;;;16.94;59.74;101244.84;5076620;27;45574;-80
2023/05/29 07:31:31;;;;;;;;;19.00;16.00;;;;;16.95;59.60;101238.56;5076190;27;45790;-79
2023/05/29 07:33:56;;;;;;;;;10.00;9.50;;;;;17.00;59.98;101262.00;5076173;28;45739;-80
2023/05/29 07:36:25;;;;;;;;;15.00;14.50;;;;;17.01;59.82;101248.59;5075666;28;45754;-78
2023/05/29 07:38:50;;;;;;;;;17.50;16.50;;;;;17.04;59.82;101247.50;5076724;27;45603;-78
2023/05/29 07:41:17;;;;;;;;;21.25;20.00;;;;;17.08;59.34;101244.47;5074790;28;46036;-77
2023/05/29 07:43:42;;;;;;;;;11.75;11.25;;;;;17.10;59.58;101250.47;5075286;27;45730;-74
2023/05/29 07:46:08;;;;;;;;;17.00;16.50;;;;;17.13;59.47;101252.00;5074943;27;45468;-82
2023/05/29 07:48:33;;;;;;;;;19.75;18.50;;;;;17.15;59.50;101242.13;5074713;27;45560;-77
2023/05/29 07:50:59;;;;;;;;;20.75;16.25;;;;;17.17;59.36;101259.53;5074694;27;45512;-77
2023/05/29 07:56:47;;;;;;;;;18.50;16.00;;;;;17.27;59.24;101254.28;5074967;28;45518;-80
2023/05/29 07:59:13;;;;;;;;;16.00;15.25;;;;;17.29;58.85;101241.72;5076511;28;46864;-81
2023/05/29 08:01:44;;;;;;;;;21.50;15.25;;;;;17.38;58.67;101261.28;5074920;28;46186;-83
2023/05/29 08:04:10;;;;;;;;;19.75;16.50;;;;;17.36;58.47;101253.44;5075199;27;45711;-81
2023/05/29 08:06:36;;;;;;;;;19.50;18.00;;;;;17.38;58.96;101248.84;5074706;28;45799;-80
2023/05/29 08:09:03;;;;;;;;;18.00;17.25;;;;;17.37;58.42;101231.28;5074044;27;45659;-81
2023/05/29 08:11:29;;;;;;;;;18.75;16.75;;;;;17.38;58.87;101240.06;5073590;28;45915;-80
2023/05/29 08:13:55;;;;;;;;;18.00;17.00;;;;;17.46;58.33;101243.69;5073676;28;45506;-79
2023/05/29 08:16:22;;;;;;;;;15.25;14.25;;;;;17.47;58.45;101248.03;5073991;27;45516;-78
2023/05/29 08:18:47;;;;;;;;;19.25;19.25;;;;;17.52;58.54;101259.06;5074178;28;45690;-81
2023/05/29 08:21:16;;;;;;;;;17.00;15.00;;;;;17.53;58.29;101247.47;5074024;28;45884;-81
2023/05/29 08:27:04;;;;;;;;;20.00;19.00;;;;;17.61;57.59;101246.81;5072507;28;45771;-77
2023/05/29 08:29:29;;;;;;;;;18.00;17.50;;;;;17.62;58.06;101243.19;5070797;28;47844;-74
2023/05/29 08:31:55;;;;;;;;;16.75;16.00;;;;;17.67;58.21;101248.06;5072077;27;45683;-76
2023/05/29 08:34:20;;;;;;;;;22.00;17.00;;;;;17.73;57.56;101256.31;5074924;27;45642;-76
2023/05/29 08:36:46;;;;;;;;;20.25;19.25;;;;;17.76;58.02;101258.66;5076075;27;45459;-75
2023/05/29 08:42:39;;;;;;;;;20.00;19.00;;;;;17.83;57.56;101258.94;5064176;28;45859;-75
2023/05/29 08:45:09;;;;;;;;;18.25;16.00;;;;;17.89;57.26;101264.53;5076552;27;45459;-76
2023/05/29 08:47:39;;;;;;;;;15.25;14.75;;;;;17.94;57.29;101259.66;5076854;27;45599;-77
2023/05/29 08:50:07;;;;;;;;;17.75;17.25;;;;;17.99;56.85;101265.34;5076370;27;45569;-75
2023/05/29 08:52:37;;;;;;;;;16.25;15.25;;;;;18.04;56.81;101255.16;5076045;27;46074;-75
2023/05/29 08:55:03;;;;;;;;;19.25;18.00;;;;;18.05;56.74;101245.41;5076435;27;45463;-77
2023/05/29 08:57:29;;;;;;;;;17.00;16.00;;;;;18.12;56.54;101250.97;5076781;27;45785;-75
2023/05/29 08:59:55;;;;;;;;;18.00;16.75;;;;;18.17;56.99;101238.97;5077908;27;46524;-75
2023/05/29 09:02:21;;;;;;;;;18.25;18.25;;;;;18.23;56.91;101248.19;5076039;27;46507;-76
2023/05/29 09:04:52;;;;;;;;;17.50;15.00;;;;;18.27;56.09;101247.75;5076255;27;45595;-81
2023/05/29 09:07:19;;;;;;;;;20.00;18.25;;;;;18.32;56.40;101255.25;5076436;28;45532;-76
2023/05/29 09:09:47;;;;;;;;;19.50;19.25;;;;;18.37;56.48;101256.50;5076119;27;46368;-76
2023/05/29 09:12:14;;;;;;;;;18.75;16.50;;;;;18.42;56.54;101254.25;5075856;27;46071;-77
2023/05/29 09:14:42;;;;;;;;;21.75;20.00;;;;;18.49;56.34;101257.19;5074575;28;45594;-77
2023/05/29 09:17:10;;;;;;;;;18.25;17.00;;;;;18.53;56.39;101255.06;5076327;27;45566;-79
2023/05/29 09:19:38;;;;;;;;;18.50;18.50;;;;;18.58;56.21;101266.13;5076088;27;45651;-78
2023/05/29 09:22:09;;;;;;;;;20.75;17.75;;;;;18.64;55.73;101253.09;5075820;27;45576;-83
2023/05/29 09:28:05;;;;;;;;;19.50;19.00;;;;;18.77;55.60;101260.75;5076017;28;45576;-78
2023/05/29 09:30:41;;;;;;;;;22.00;19.25;;;;;18.81;55.12;101264.78;5076304;27;45752;-78
2023/05/29 09:33:09;;;;;;;;;23.50;19.75;;;;;18.83;55.25;101260.19;5079006;27;46011;-77
2023/05/29 09:35:42;;;;;;;;;16.75;15.50;;;;;18.86;55.27;101265.19;5103820;27;45531;-78
2023/05/29 09:38:09;;;;;;;;;19.50;17.50;;;;;18.91;55.51;101256.78;5090394;27;45519;-79
2023/05/29 09:40:36;;;;;;;;;22.00;21.00;;;;;18.95;54.82;101269.59;5086466;27;45686;-80
2023/05/29 09:43:09;;;;;;;;;27.75;22.25;;;;;18.99;54.89;101263.03;5079169;28;46155;-79
2023/05/29 09:45:45;;;;;;;;;21.00;18.50;;;;;19.02;55.08;101253.91;5076824;27;45529;-80
2023/05/29 09:48:17;;;;;;;;;21.00;18.50;;;;;19.08;54.48;101267.47;5076605;27;45612;-77
2023/05/29 09:50:44;;;;;;;;;25.75;24.25;;;;;19.13;55.06;101251.91;5076254;27;46804;-80
2023/05/29 09:53:26;;;;;;;;;21.50;20.50;;;;;19.19;54.28;101255.78;5076068;27;46009;-74
2023/05/29 09:55:54;;;;;;;;;22.25;20.25;;;;;19.23;54.20;101244.72;5076399;27;45529;-80
2023/05/29 09:58:20;;;;;;;;;25.50;21.25;;;;;19.28;54.55;101254.88;5076152;27;45747;-81
2023/05/29 10:00:47;;;;;;;;;26.00;21.25;;;;;19.34;54.25;101242.81;5075818;27;46389;-80
2023/05/29 10:03:13;;;;;;;;;26.50;22.00;;;;;19.36;53.77;101247.03;5073923;28;46231;-80
2023/05/29 10:05:39;;;;;;;;;23.25;22.75;;;;;19.39;54.34;101248.53;5075619;28;45689;-76
2023/05/29 10:08:09;;;;;;;;;21.75;20.50;;;;;19.42;53.90;101241.09;5075717;27;46320;-77
2023/05/29 10:10:38;;;;;;;;;21.75;19.50;;;;;19.49;53.57;101244.84;5074952;27;46421;-82
2023/05/29 10:13:09;;;;;;;;;26.50;22.00;;;;;19.55;53.63;101248.72;5075300;27;46307;-77
2023/05/29 10:15:36;;;;;;;;;24.00;21.00;;;;;19.61;53.70;101237.50;5075313;27;45509;-77
2023/05/29 10:18:12;;;;;;;;;25.00;22.75;;;;;19.69;53.52;101251.72;5075409;27;45737;-79
2023/05/29 10:20:38;;;;;;;;;26.00;25.00;;;;;19.74;53.39;101239.78;5074966;27;46168;-79
2023/05/29 10:23:05;;;;;;;;;26.25;23.00;;;;;19.79;53.29;101251.63;5074981;28;45615;-81
2023/05/29 10:25:33;;;;;;;;;24.00;23.25;;;;;19.85;53.21;101244.84;5075277;27;45649;-79
2023/05/29 10:28:01;;;;;;;;;23.75;20.75;;;;;19.90;52.97;101238.09;5075194;27;45601;-79
2023/05/29 10:30:53;;;;;;;;;25.75;23.25;;;;;19.96;53.16;101239.31;5074605;27;46363;-79
2023/05/29 10:33:48;;;;;;;;;23.00;21.75;;;;;20.03;52.91;101245.66;5075022;27;45520;-80
2023/05/29 10:36:18;;;;;;;;;26.00;23.75;;;;;20.09;52.43;101237.06;5075100;27;45544;-78
2023/05/29 10:38:48;;;;;;;;;22.75;20.75;;;;;20.13;52.51;101233.13;5075168;27;45548;-80
2023/05/29 10:41:33;;;;;;;;;22.50;20.25;;;;;20.20;52.57;101230.66;5074969;27;46543;-79
2023/05/29 10:44:00;;;;;;;;;25.75;24.75;;;;;20.22;52.42;101226.84;5072704;28;48196;-79
2023/05/29 10:46:48;;;;;;;;;22.50;20.00;;;;;20.28;52.34;101234.22;5074911;27;45655;-79
2023/05/29 10:49:20;;;;;;;;;28.25;25.75;;;;;20.31;52.01;101243.69;5075219;27;45667;-78
2023/05/29 10:51:48;;;;;;;;;22.00;20.50;;;;;20.33;52.25;101233.78;5074962;28;46804;-76
2023/05/29 10:54:16;;;;;;;;;17.75;17.00;;;;;20.36;51.84;101226.31;5074618;27;46311;-79
2023/05/29 10:56:45;;;;;;;;;23.50;20.25;;;;;20.38;51.43;101220.81;5074393;27;45536;-80
2023/05/29 10:59:13;;;;;;;;;25.25;23.50;;;;;20.44;51.55;101222.88;5075089;27;45458;-82
2023/05/29 11:01:39;;;;;;;;;24.00;22.00;;;;;20.48;51.55;101234.84;5074705;27;46649;-79
2023/05/29 11:04:26;;;;;;;;;25.25;22.50;;;;;20.51;51.40;101232.72;5074679;28;46042;-81
2023/05/29 11:06:52;;;;;;;;;23.00;21.25;;;;;20.52;51.25;101234.38;5073028;28;45601;-79
2023/05/29 11:09:37;;;;;;;;;24.25;21.75;;;;;20.55;51.41;101235.91;5074991;28;45519;-78
2023/05/29 11:12:32;;;;;;;;;25.00;23.25;;;;;20.58;51.54;101216.94;5074419;27;45482;-80
2023/05/29 11:15:08;;;;;;;;;24.00;21.00;;;;;20.61;51.37;101215.81;5074817;27;46297;-80
2023/05/29 11:17:39;;;;;;;;;23.25;18.75;;;;;20.64;51.43;101226.97;5075190;27;45877;-79
2023/05/29 11:20:07;;;;;;;;;21.75;19.25;;;;;20.69;51.20;101219.31;5076857;28;45632;-81
2023/05/29 11:22:51;;;;;;;;;25.00;22.00;;;;;20.77;51.44;101216.72;5076243;28;45532;-80
2023/05/29 11:25:16;;;;;;;;;22.75;21.00;;;;;20.81;51.05;101223.38;5075131;28;45979;-81
2023/05/29 11:27:45;;;;;;;;;23.00;20.25;;;;;20.91;50.62;101233.91;5077746;27;46173;-80
2023/05/29 11:30:11;;;;;;;;;22.00;21.25;;;;;20.91;50.70;101221.41;5076650;27;45591;-79
2023/05/29 11:32:39;;;;;;;;;20.75;20.75;;;;;20.96;50.93;101218.25;5077855;27;46429;-79
2023/05/29 11:35:08;;;;;;;;;23.00;20.00;;;;;21.02;51.06;101220.28;5075263;27;46121;-81
2023/05/29 11:37:46;;;;;;;;;20.75;19.75;;;;;21.05;50.61;101206.66;5075221;27;45801;-78
2023/05/29 11:40:12;;;;;;;;;23.50;21.25;;;;;21.10;50.69;101207.00;5075118;28;45626;-81
2023/05/29 11:42:45;;;;;;;;;23.75;20.75;;;;;21.17;50.50;101215.19;5076173;27;45612;-80
2023/05/29 11:45:14;;;;;;;;;24.25;20.00;;;;;21.22;50.01;101207.53;5074468;27;45497;-80
2023/05/29 11:47:55;;;;;;;;;22.25;20.00;;;;;21.25;49.90;101207.22;5074644;27;45777;-76
2023/05/29 11:50:29;;;;;;;;;23.50;20.00;;;;;21.29;49.94;101206.72;5075020;28;45784;-82
2023/05/29 11:52:56;;;;;;;;;24.25;19.75;;;;;21.36;49.57;101209.59;5080307;27;45572;-76
2023/05/29 11:55:22;;;;;;;;;23.75;19.50;;;;;21.42;49.49;101200.94;5084102;27;46017;-79
2023/05/29 11:57:50;;;;;;;;;20.00;19.25;;;;;21.47;49.11;101192.44;5084409;27;45740;-81
2023/05/29 12:00:18;;;;;;;;;22.25;21.25;;;;;21.51;49.18;101193.75;5079150;27;45667;-75
2023/05/29 12:02:46;;;;;;;;;20.75;18.50;;;;;21.55;49.12;101203.09;5076985;28;46369;-78
2023/05/29 12:05:14;;;;;;;;;14.50;14.00;;;;;21.58;48.64;101194.78;5074576;27;46026;-79
2023/05/29 12:07:56;;;;;;;;;14.00;13.00;;;;;21.62;48.80;101193.44;5074124;27;45710;-77
2023/05/29 12:10:22;;;;;;;;;22.25;19.50;;;;;21.69;48.93;101199.78;5077183;27;45527;-75
2023/05/29 12:12:53;;;;;;;;;18.75;18.50;;;;;21.74;48.62;101192.13;5077174;28;45822;-76
2023/05/29 12:15:19;;;;;;;;;15.50;15.50;;;;;21.79;48.52;101205.78;5077178;27;47317;-76
2023/05/29 12:17:45;;;;;;;;;12.50;12.00;;;;;21.85;48.43;101174.94;5077367;28;45641;-78
2023/05/29 12:20:13;;;;;;;;;16.50;16.25;;;;;21.92;48.40;101198.09;5077167;27;45665;-79
2023/05/29 12:22:40;;;;;;;;;18.25;16.25;;;;;21.96;47.64;101183.47;5077134;27;45647;-75
2023/05/29 12:25:15;;;;;;;;;19.75;16.50;;;;;22.02;47.72;101173.94;5075589;28;46218;-80